Time;durP1;ratioP1;P1;durP2;ratioP2;P2;SDS_P1;SDS_P2;PMS_P1;PMS_P2;Temp;Humidity;BMP_temperature;BMP_pressure;BME280_temperature;BME280_humidity;BME280_pressure;Samples;Min_cycle;Max_cycle;Signal;HPM_P1;HPM_P2
2021/11/29 00:02:23;;;;;;;38.78;23.45;;;;;;;4.07;94.83;97887.71;1773894;80;25557;-71
2021/11/29 00:04:50;;;;;;;39.63;22.43;;;;;;;4.08;94.55;97889.83;1773819;80;26513;-71
2021/11/29 00:07:16;;;;;;;37.60;23.38;;;;;;;4.05;94.32;97890.47;1773626;80;25404;-72
2021/11/29 00:09:43;;;;;;;37.75;21.97;;;;;;;4.04;94.31;97893.70;1773603;80;27330;-72
2021/11/29 00:12:14;;;;;;;41.08;23.42;;;;;;;4.02;94.28;97898.59;1773601;80;25581;-72
2021/11/29 00:14:41;;;;;;;40.00;23.22;;;;;;;4.02;94.21;97905.28;1773619;80;25597;-70
2021/11/29 00:17:08;;;;;;;41.13;22.52;;;;;;;4.00;94.23;97903.49;1773568;80;26703;-70
2021/11/29 00:19:34;;;;;;;44.05;23.90;;;;;;;4.00;94.26;97894.66;1749863;80;25666;-70
2021/11/29 00:22:01;;;;;;;42.88;23.20;;;;;;;3.99;94.28;97897.91;1773346;80;28013;-71
2021/11/29 00:24:28;;;;;;;39.42;22.00;;;;;;;3.99;94.31;97905.16;1773162;80;25625;-71
2021/11/29 00:26:54;;;;;;;35.88;22.32;;;;;;;3.99;94.34;97901.14;1773013;80;25396;-70
2021/11/29 00:29:21;;;;;;;37.95;22.30;;;;;;;3.98;94.36;97899.00;1773268;80;25926;-70
2021/11/29 00:31:48;;;;;;;37.78;22.93;;;;;;;3.98;94.38;97900.90;1751520;80;25652;-71
2021/11/29 00:34:14;;;;;;;36.65;21.65;;;;;;;3.97;94.38;97891.30;1773061;80;28018;-71
2021/11/29 00:36:41;;;;;;;39.58;22.50;;;;;;;3.97;94.40;97892.63;1747717;80;25698;-72
2021/11/29 00:39:08;;;;;;;38.05;21.73;;;;;;;3.97;94.42;97887.28;1749865;82;26261;-72
2021/11/29 00:41:34;;;;;;;35.85;21.62;;;;;;;3.96;94.40;97888.41;1749234;82;25901;-72
2021/11/29 00:44:01;;;;;;;36.50;22.50;;;;;;;3.98;94.41;97894.20;1750118;82;25432;-72
2021/11/29 00:46:28;;;;;;;38.05;22.70;;;;;;;3.98;94.44;97892.88;1749996;82;27343;-73
2021/11/29 00:48:54;;;;;;;45.73;25.12;;;;;;;3.98;94.44;97890.20;1750063;82;25579;-72
2021/11/29 00:51:21;;;;;;;44.05;24.27;;;;;;;3.97;94.42;97885.41;1750303;82;25401;-71
2021/11/29 00:53:48;;;;;;;44.33;23.98;;;;;;;3.97;94.43;97885.95;1750276;82;26459;-71
2021/11/29 00:56:17;;;;;;;42.95;25.30;;;;;;;3.96;94.47;97879.82;1750341;82;25447;-71
2021/11/29 00:58:43;;;;;;;44.40;25.85;;;;;;;3.97;94.42;97873.91;1750140;81;27335;-71
2021/11/29 01:01:10;;;;;;;45.48;25.45;;;;;;;3.97;94.39;97871.23;1750144;82;25288;-71
2021/11/29 01:03:38;;;;;;;44.88;26.12;;;;;;;3.96;94.38;97867.78;1750287;82;25579;-71
2021/11/29 01:06:06;;;;;;;45.88;24.95;;;;;;;3.95;94.41;97873.45;1750299;82;26010;-71
2021/11/29 01:08:34;;;;;;;44.75;25.57;;;;;;;3.95;94.46;97862.75;1729080;82;25567;-71
2021/11/29 01:11:03;;;;;;;49.13;26.20;;;;;;;3.95;94.52;97861.42;1750251;82;27917;-71
2021/11/29 01:13:30;;;;;;;48.08;26.52;;;;;;;3.95;94.48;97860.88;1750178;82;25661;-72
2021/11/29 01:15:57;;;;;;;44.20;25.80;;;;;;;3.95;94.47;97861.42;1750283;82;25569;-71
2021/11/29 01:18:24;;;;;;;48.48;26.70;;;;;;;3.94;94.42;97860.64;1750214;82;25907;-71
2021/11/29 01:20:51;;;;;;;47.67;27.10;;;;;;;3.93;94.48;97857.73;1750293;82;25581;-71
2021/11/29 01:23:20;;;;;;;55.58;28.52;;;;;;;3.93;94.50;97855.86;1750253;81;27304;-71
2021/11/29 01:25:47;;;;;;;54.60;28.38;;;;;;;3.93;94.55;97855.86;1750108;82;25573;-71
2021/11/29 01:28:14;;;;;;;56.58;28.45;;;;;;;3.92;94.58;97850.83;1750273;82;25593;-71
2021/11/29 01:30:41;;;;;;;53.05;27.58;;;;;;;3.92;94.66;97856.18;1750208;82;25951;-71
2021/11/29 01:33:08;;;;;;;47.30;26.93;;;;;;;3.91;94.72;97850.59;1750277;82;25544;-71
2021/11/29 01:35:35;;;;;;;50.88;27.52;;;;;;;3.91;94.77;97855.94;1750270;82;27883;-71
2021/11/29 01:38:02;;;;;;;55.12;28.12;;;;;;;3.91;94.79;97858.05;1750078;80;25376;-71
2021/11/29 01:40:29;;;;;;;53.52;26.82;;;;;;;3.91;94.82;97847.91;1750258;82;25466;-71
2021/11/29 01:43:10;;;;;;;45.30;25.65;;;;;;;3.90;94.84;97832.43;1750242;81;25946;-72
2021/11/29 01:45:50;;;;;;;46.95;26.37;;;;;;;3.90;94.81;97823.06;1759712;81;25550;-72
2021/11/29 01:48:17;;;;;;;52.30;26.48;;;;;;;3.90;94.84;97819.63;1734409;81;27842;-70
2021/11/29 01:50:48;;;;;;;52.53;26.27;;;;;;;3.88;94.83;97814.59;1742483;82;25626;-70
2021/11/29 01:53:16;;;;;;;48.92;25.37;;;;;;;3.87;94.92;97811.67;1742599;82;25454;-69
2021/11/29 01:55:46;;;;;;;56.75;26.37;;;;;;;3.88;94.97;97819.94;1742546;82;26044;-70
2021/11/29 01:58:13;;;;;;;;;;;;;;;3.87;94.96;97819.70;1745225;82;25383;-70
2021/11/29 02:00:45;;;;;;;45.92;24.23;;;;;;;3.87;94.91;97826.38;1742735;82;27311;-70
2021/11/29 02:03:13;;;;;;;44.25;23.55;;;;;;;3.85;95.01;97825.94;1742640;82;25390;-70
2021/11/29 02:05:40;;;;;;;46.92;23.60;;;;;;;3.86;95.06;97824.03;1742679;82;25560;-70
2021/11/29 02:08:07;;;;;;;50.78;24.32;;;;;;;3.85;95.05;97825.94;1742109;82;25934;-70
2021/11/29 02:10:35;;;;;;;45.10;24.15;;;;;;;3.84;95.05;97822.24;1742259;82;25599;-70
2021/11/29 02:13:02;;;;;;;48.08;23.12;;;;;;;3.82;95.03;97833.26;1742282;82;27365;-70
2021/11/29 02:15:28;;;;;;;42.83;23.73;;;;;;;3.81;95.04;97830.91;1742146;82;25489;-70
2021/11/29 02:17:57;;;;;;;43.87;23.12;;;;;;;3.80;95.12;97834.67;1742229;82;25672;-70
2021/11/29 02:20:26;;;;;;;41.20;22.58;;;;;;;3.80;95.20;97832.00;1742193;82;26078;-71
2021/11/29 02:22:53;;;;;;;44.00;23.45;;;;;;;3.78;95.17;97826.20;1742345;82;25631;-71
2021/11/29 02:25:20;;;;;;;40.10;22.17;;;;;;;3.77;95.14;97816.06;1742220;82;27850;-71
2021/11/29 02:27:50;;;;;;;43.65;21.62;;;;;;;3.77;95.22;97811.28;1742110;82;25601;-70
2021/11/29 02:30:19;;;;;;;42.60;21.57;;;;;;;3.74;95.21;97800.10;1742257;82;25589;-70
2021/11/29 02:32:47;;;;;;;41.37;20.37;;;;;;;3.73;95.09;97798.55;1718605;82;25874;-70
2021/11/29 02:35:14;;;;;;;43.52;19.98;;;;;;;3.71;95.09;97794.09;1742649;80;25446;-70
2021/11/29 02:37:41;;;;;;;41.98;21.75;;;;;;;3.70;95.12;97804.55;1736606;80;27931;-71
2021/11/29 02:40:09;;;;;;;43.55;20.95;;;;;;;3.69;95.17;97807.54;1729554;82;25380;-71
2021/11/29 02:42:36;;;;;;;47.38;20.43;;;;;;;3.66;95.23;97802.30;1728987;83;25496;-71
2021/11/29 02:45:04;;;;;;;41.85;22.05;;;;;;;3.67;95.38;97811.09;1729096;83;26547;-71
2021/11/29 02:47:31;;;;;;;38.78;20.57;;;;;;;3.64;95.33;97816.52;1731453;82;25639;-70
2021/11/29 02:49:57;;;;;;;45.43;21.55;;;;;;;3.64;95.40;97807.16;1710529;82;26896;-70
2021/11/29 02:52:26;;;;;;;41.48;20.40;;;;;;;3.63;95.35;97804.84;1731635;82;25590;-70
2021/11/29 02:54:52;;;;;;;37.08;18.73;;;;;;;3.60;95.29;97794.79;1731590;82;25530;-70
2021/11/29 02:57:22;;;;;;;39.45;17.65;;;;;;;3.54;95.17;97796.31;1731260;82;26462;-70
2021/11/29 02:59:49;;;;;;;;;;;;;;;3.50;95.08;97792.70;1734233;82;25624;-70
2021/11/29 03:02:19;;;;;;;38.38;17.05;;;;;;;3.44;95.03;97787.33;1731645;82;27993;-69
2021/11/29 03:04:47;;;;;;;38.95;18.67;;;;;;;3.40;95.07;97789.06;1729509;82;25604;-70
2021/11/29 03:07:16;;;;;;;40.12;17.52;;;;;;;3.35;95.20;97800.73;1731361;82;25403;-70
2021/11/29 03:09:43;;;;;;;42.13;20.20;;;;;;;3.32;95.32;97797.90;1731269;82;25882;-70
2021/11/29 03:12:11;;;;;;;37.30;18.77;;;;;;;3.29;95.43;97795.33;1731460;82;25467;-71
2021/11/29 03:14:38;;;;;;;33.73;17.73;;;;;;;3.27;95.46;97800.22;1731536;82;27388;-71
2021/11/29 03:17:05;;;;;;;41.83;18.90;;;;;;;3.24;95.47;97807.53;1710597;82;25641;-70
2021/11/29 03:19:35;;;;;;;38.55;19.42;;;;;;;3.21;95.39;97807.39;1731506;82;25395;-71
2021/11/29 03:22:07;;;;;;;36.17;17.45;;;;;;;3.18;95.50;97804.80;1731347;82;25967;-71
2021/11/29 03:24:34;;;;;;;37.30;18.10;;;;;;;3.16;95.55;97799.77;1731486;82;25436;-71
2021/11/29 03:27:01;;;;;;;36.63;17.75;;;;;;;3.12;95.36;97803.42;1731562;82;27310;-70
2021/11/29 03:29:28;;;;;;;36.98;18.25;;;;;;;3.07;95.23;97809.72;1731769;82;25621;-70
2021/11/29 03:31:59;;;;;;;37.45;18.32;;;;;;;3.04;95.29;97813.02;1731604;82;25448;-70
2021/11/29 03:34:27;;;;;;;31.45;17.77;;;;;;;2.99;95.25;97817.98;1731593;82;26009;-70
2021/11/29 03:36:54;;;;;;;34.65;16.82;;;;;;;2.96;95.31;97815.16;1731528;82;25386;-71
2021/11/29 03:39:25;;;;;;;32.55;17.70;;;;;;;2.93;95.38;97813.16;1772613;80;27896;-71
2021/11/29 03:41:59;;;;;;;35.80;17.65;;;;;;;2.90;95.40;97806.55;1773362;80;25373;-71
2021/11/29 03:44:27;;;;;;;34.95;18.23;;;;;;;2.87;95.44;97803.18;1773047;80;25577;-71
2021/11/29 03:46:55;;;;;;;41.77;18.52;;;;;;;2.83;95.27;97810.80;1772238;80;26465;-71
2021/11/29 03:49:23;;;;;;;40.30;19.95;;;;;;;2.79;95.33;97815.99;1773637;80;25421;-71
2021/11/29 03:51:50;;;;;;;34.95;18.48;;;;;;;2.78;95.50;97815.78;1773584;80;27305;-71
2021/11/29 03:54:18;;;;;;;43.70;19.95;;;;;;;2.74;95.46;97822.30;1773479;80;25582;-71
2021/11/29 03:56:45;;;;;;;40.55;19.32;;;;;;;2.71;95.50;97814.92;1750236;80;25587;-71
2021/11/29 03:59:11;;;;;;;37.65;18.23;;;;;;;2.70;95.61;97817.91;1771755;80;26035;-70
2021/11/29 04:01:38;;;;;;;37.85;18.77;;;;;;;2.65;95.45;97817.52;1773410;80;25477;-70
2021/11/29 04:04:06;;;;;;;32.85;16.37;;;;;;;2.60;95.30;97819.02;1772812;80;27373;-70
2021/11/29 04:06:33;;;;;;;32.33;17.23;;;;;;;2.55;95.22;97823.19;1772949;80;25637;-70
2021/11/29 04:09:00;;;;;;;32.67;17.10;;;;;;;2.52;95.36;97816.61;1749691;80;25469;-70
2021/11/29 04:11:27;;;;;;;36.23;18.35;;;;;;;2.48;95.35;97819.66;1773014;80;25973;-70
2021/11/29 04:13:53;;;;;;;30.52;16.07;;;;;;;2.41;95.15;97820.13;1773327;80;25396;-71
2021/11/29 04:16:20;;;;;;;29.10;15.70;;;;;;;2.36;95.17;97824.30;1773578;80;27952;-69
2021/11/29 04:18:47;;;;;;;31.10;16.90;;;;;;;2.30;95.17;97819.42;1751715;80;25652;-70
2021/11/29 04:21:16;;;;;;;36.20;18.05;;;;;;;2.27;95.40;97824.08;1774199;80;25459;-71
2021/11/29 04:23:45;;;;;;;37.15;17.32;;;;;;;2.23;95.33;97816.70;1773363;80;25921;-71
2021/11/29 04:26:16;;;;;;;31.55;18.07;;;;;;;2.21;95.42;97822.91;1773177;80;25589;-71
2021/11/29 04:28:44;;;;;;;34.33;18.05;;;;;;;2.17;95.27;97822.50;1773555;80;27315;-71
2021/11/29 04:31:10;;;;;;;30.97;16.87;;;;;;;2.12;95.26;97822.66;1773346;80;25409;-71
2021/11/29 04:33:37;;;;;;;37.33;18.00;;;;;;;2.10;95.44;97820.86;1773577;80;25472;-69
2021/11/29 04:36:05;;;;;;;34.78;18.92;;;;;;;2.10;95.68;97832.30;1751462;80;25612;-69
2021/11/29 04:38:31;;;;;;;35.40;17.90;;;;;;;2.07;95.48;97826.25;1771817;80;25603;-69
2021/11/29 04:40:58;;;;;;;37.93;18.60;;;;;;;2.03;95.42;97819.99;1773486;80;27040;-71
2021/11/29 04:43:25;;;;;;;35.20;19.00;;;;;;;2.03;95.51;97817.33;1772941;80;25628;-72
2021/11/29 04:45:51;;;;;;;38.65;18.45;;;;;;;2.01;95.56;97807.50;1773537;80;25566;-71
2021/11/29 04:48:18;;;;;;;38.83;18.62;;;;;;;1.98;95.43;97809.48;1773501;80;26667;-71
2021/11/29 04:50:45;;;;;;;36.75;19.12;;;;;;;1.94;95.31;97813.32;1773553;80;25400;-71
2021/11/29 04:53:11;;;;;;;36.05;18.12;;;;;;;1.91;95.36;97812.61;1773558;80;27977;-71
2021/11/29 04:55:38;;;;;;;37.08;18.30;;;;;;;1.88;95.30;97815.11;1773350;80;25449;-71
2021/11/29 04:58:04;;;;;;;34.03;18.07;;;;;;;1.82;95.20;97814.46;1772684;80;25405;-71
2021/11/29 05:00:32;;;;;;;31.93;16.73;;;;;;;1.76;95.14;97816.50;1773514;80;25965;-71
2021/11/29 05:02:58;;;;;;;36.25;18.80;;;;;;;1.72;95.14;97815.56;1772472;80;25630;-68
2021/11/29 05:05:26;;;;;;;33.35;16.55;;;;;;;1.70;95.30;97815.63;1773489;80;27443;-70
2021/11/29 05:07:53;;;;;;;32.67;18.07;;;;;;;1.67;95.38;97814.37;1773077;80;25666;-70
2021/11/29 05:10:20;;;;;;;34.70;18.37;;;;;;;1.63;95.35;97819.52;1772903;80;25406;-70
2021/11/29 05:12:46;;;;;;;38.25;16.55;;;;;;;1.61;95.42;97811.05;1773356;80;26013;-71
2021/11/29 05:15:13;;;;;;;33.58;17.00;;;;;;;1.59;95.40;97813.80;1772845;80;25410;-69
2021/11/29 05:17:39;;;;;;;32.80;15.93;;;;;;;1.55;95.32;97823.49;1772665;80;28075;-69
2021/11/29 05:20:08;;;;;;;27.70;16.00;;;;;;;1.51;95.25;97836.65;1776883;80;25619;-71
2021/11/29 05:22:35;;;;;;;27.90;15.43;;;;;;;1.46;95.30;97844.78;1760635;80;25514;-70
2021/11/29 05:25:02;;;;;;;37.48;15.18;;;;;;;1.40;95.26;97848.14;1705399;84;25933;-70
2021/11/29 05:27:30;;;;;;;28.57;14.23;;;;;;;1.38;95.43;97845.01;1711619;83;25503;-68
2021/11/29 05:29:57;;;;;;;28.75;14.95;;;;;;;1.35;95.47;97850.17;1713242;83;27341;-70
2021/11/29 05:32:24;;;;;;;30.68;15.10;;;;;;;1.33;95.57;97858.98;1712717;83;25601;-69
2021/11/29 05:34:51;;;;;;;35.17;14.95;;;;;;;1.31;95.84;97859.29;1713457;83;25535;-69
2021/11/29 05:37:18;;;;;;;28.75;16.02;;;;;;;1.31;95.95;97864.63;1713351;83;25981;-67
2021/11/29 05:39:45;;;;;;;32.05;15.58;;;;;;;1.29;95.98;97872.94;1713105;82;25655;-68
2021/11/29 05:42:11;;;;;;;32.20;14.30;;;;;;;1.30;96.09;97871.05;1710611;83;27382;-71
2021/11/29 05:44:38;;;;;;;28.17;14.63;;;;;;;1.28;95.96;97874.02;1708943;83;25802;-68
2021/11/29 05:47:06;;;;;;;27.85;14.13;;;;;;;1.26;95.94;97871.41;1700762;84;25536;-68
2021/11/29 05:49:33;;;;;;;28.42;13.65;;;;;;;1.25;96.05;97879.18;1700855;84;26489;-69
2021/11/29 05:52:00;;;;;;;24.67;14.00;;;;;;;1.26;96.22;97882.06;1700914;84;25206;-69
2021/11/29 05:54:28;;;;;;;29.15;13.40;;;;;;;1.21;96.07;97876.34;1680857;84;27331;-69
2021/11/29 05:56:56;;;;;;;23.73;13.13;;;;;;;1.21;96.08;97880.34;1717306;83;25689;-68
2021/11/29 05:59:24;;;;;;;30.62;15.53;;;;;;;1.15;95.91;97879.44;1715013;83;25356;-68
2021/11/29 06:01:51;;;;;;;26.30;13.43;;;;;;;1.12;95.97;97878.16;1714955;83;25931;-68
2021/11/29 06:04:18;;;;;;;25.17;14.40;;;;;;;1.10;96.15;97877.69;1714898;83;25472;-68
2021/11/29 06:06:45;;;;;;;29.70;14.53;;;;;;;1.08;96.30;97871.33;1777405;80;27373;-70
2021/11/29 06:09:12;;;;;;;31.48;14.78;;;;;;;1.08;96.43;97873.22;1778358;80;25864;-69
2021/11/29 06:11:39;;;;;;;31.23;16.15;;;;;;;1.09;96.62;97873.44;1775268;80;25379;-70
2021/11/29 06:14:06;;;;;;;30.62;14.93;;;;;;;1.08;96.48;97874.00;1749022;82;26652;-70
2021/11/29 06:16:33;;;;;;;33.20;17.07;;;;;;;1.08;96.65;97874.00;1749098;80;25435;-70
2021/11/29 06:19:01;;;;;;;32.42;15.70;;;;;;;1.06;96.54;97882.84;1749069;80;27335;-70
2021/11/29 06:21:28;;;;;;;32.35;15.05;;;;;;;1.05;96.62;97881.25;1748980;82;25424;-70
2021/11/29 06:23:56;;;;;;;34.67;17.15;;;;;;;1.03;96.57;97892.77;1749079;82;25462;-70
2021/11/29 06:26:23;;;;;;;27.15;14.65;;;;;;;1.03;96.58;97894.64;1749002;80;25737;-70
2021/11/29 06:28:50;;;;;;;34.60;15.55;;;;;;;1.00;96.61;97898.69;1749038;82;25196;-70
2021/11/29 06:31:16;;;;;;;28.30;13.75;;;;;;;0.99;96.64;97909.64;1749036;82;27333;-70
2021/11/29 06:33:43;;;;;;;31.82;14.95;;;;;;;0.98;96.71;97914.19;1748895;80;25557;-71
2021/11/29 06:36:10;;;;;;;46.15;20.85;;;;;;;0.98;96.87;97902.76;1748911;82;25554;-71
2021/11/29 06:38:37;;;;;;;26.42;14.55;;;;;;;0.98;96.89;97914.19;1748762;82;25883;-71
2021/11/29 06:41:04;;;;;;;24.65;14.18;;;;;;;0.98;96.89;97914.19;1762355;79;25667;-70
2021/11/29 06:43:31;;;;;;;27.37;13.90;;;;;;;0.97;96.91;97915.81;1779106;80;27930;-71
2021/11/29 06:45:58;;;;;;;28.90;14.75;;;;;;;0.97;97.00;97917.14;1752899;80;25469;-71
2021/11/29 06:48:24;;;;;;;25.23;14.23;;;;;;;0.96;97.00;97910.27;1785767;80;25453;-71
2021/11/29 06:50:53;;;;;;;27.80;15.25;;;;;;;0.97;97.01;97909.97;1785733;80;25926;-71
2021/11/29 06:53:22;;;;;;;25.20;14.65;;;;;;;0.97;97.13;97911.30;1785923;80;25302;-71
2021/11/29 06:55:50;;;;;;;26.77;14.13;;;;;;;0.96;96.96;97910.27;1785903;80;27451;-72
2021/11/29 06:58:17;;;;;;;30.15;15.53;;;;;;;0.91;96.97;97914.61;1785679;80;25615;-71
2021/11/29 07:00:44;;;;;;;28.20;14.93;;;;;;;0.88;96.81;97909.88;1785759;80;25562;-71
2021/11/29 07:03:11;;;;;;;25.72;13.65;;;;;;;0.85;96.82;97910.52;1785725;80;25894;-72
2021/11/29 07:05:38;;;;;;;26.23;14.80;;;;;;;0.82;96.83;97912.45;1785770;80;25559;-71
2021/11/29 07:08:05;;;;;;;28.75;15.72;;;;;;;0.83;96.95;97918.55;1780556;80;27039;-69
2021/11/29 07:10:32;;;;;;;27.10;14.60;;;;;;;0.82;97.04;97922.28;1746105;81;25533;-69
2021/11/29 07:12:59;;;;;;;24.90;14.58;;;;;;;0.80;97.07;97924.47;1741550;81;25417;-70
2021/11/29 07:15:27;;;;;;;29.85;16.00;;;;;;;0.80;97.12;97931.12;1743176;82;25983;-70
2021/11/29 07:17:53;;;;;;;29.48;16.32;;;;;;;0.82;97.32;97935.59;1747480;81;25466;-70
2021/11/29 07:20:20;;;;;;;28.80;17.62;;;;;;;0.82;97.32;97940.91;1741077;82;27923;-70
2021/11/29 07:22:47;;;;;;;30.80;16.52;;;;;;;0.82;97.31;97945.71;1732122;82;25600;-70
2021/11/29 07:25:15;;;;;;;32.28;17.50;;;;;;;0.86;97.39;97944.56;1741120;81;25659;-70
2021/11/29 07:27:42;;;;;;;28.70;16.50;;;;;;;0.85;97.29;97938.98;1743687;82;25975;-70
2021/11/29 07:30:12;;;;;;;39.88;19.95;;;;;;;0.86;97.31;97948.55;1740621;82;25582;-69
2021/11/29 07:32:39;;;;;;;35.48;18.62;;;;;;;0.88;97.35;97950.36;1746078;82;27321;-70
2021/11/29 07:35:09;;;;;;;33.05;17.73;;;;;;;0.87;97.30;97953.58;1747220;81;25559;-70
2021/11/29 07:37:36;;;;;;;31.05;16.82;;;;;;;0.84;97.08;97954.17;1741192;82;25622;-70
2021/11/29 07:42:44;;;;;;;33.98;17.65;;;;;;;0.86;97.20;97952.55;1696601;84;25659;-71
2021/11/29 07:45:12;;;;;;;30.82;18.45;;;;;;;0.86;97.09;97956.54;1697761;84;27931;-69
2021/11/29 07:47:42;;;;;;;30.60;17.25;;;;;;;0.88;97.23;97963.67;1691969;84;25463;-70
2021/11/29 07:50:14;;;;;;;32.17;17.73;;;;;;;0.87;97.24;97966.89;1692127;84;25565;-71
2021/11/29 07:52:43;;;;;;;30.85;17.57;;;;;;;0.90;97.24;97966.29;1691913;84;26063;-71
2021/11/29 07:55:13;;;;;;;29.25;17.82;;;;;;;0.90;97.18;97962.30;1691996;84;25498;-70
2021/11/29 07:57:40;;;;;;;30.85;18.02;;;;;;;0.87;96.98;97948.25;1691861;84;28103;-70
2021/11/29 08:00:17;;;;;;;32.48;18.05;;;;;;;0.88;96.96;97953.80;1691845;84;25689;-70
2021/11/29 08:02:41;;;;;;;33.35;19.20;;;;;;;0.87;96.92;97951.44;1691496;84;25622;-69
2021/11/29 08:05:09;;;;;;;36.40;19.92;;;;;;;0.87;97.04;97947.45;1692685;84;25928;-69
2021/11/29 08:07:35;;;;;;;29.77;18.02;;;;;;;0.86;96.86;97951.22;1691824;84;25644;-69
2021/11/29 08:10:04;;;;;;;36.28;19.57;;;;;;;0.87;96.94;97955.44;1692808;84;27474;-69
2021/11/29 08:12:31;;;;;;;31.45;18.65;;;;;;;0.84;96.91;97942.20;1691890;84;25439;-70
2021/11/29 08:14:58;;;;;;;33.48;18.80;;;;;;;0.86;96.85;97943.23;1691858;84;25682;-70
2021/11/29 08:17:25;;;;;;;32.20;18.60;;;;;;;0.83;96.80;97943.83;1691837;84;26000;-70
2021/11/29 08:19:52;;;;;;;32.83;18.98;;;;;;;0.84;96.84;97944.08;1717428;81;25401;-70
2021/11/29 08:22:19;;;;;;;33.63;18.70;;;;;;;0.82;96.81;97940.39;1751411;81;27346;-70
2021/11/29 08:24:45;;;;;;;30.27;18.57;;;;;;;0.84;96.88;97946.19;1751414;81;25607;-69
2021/11/29 08:27:13;;;;;;;31.62;18.20;;;;;;;0.87;97.05;97952.77;1751435;81;25624;-69
2021/11/29 08:29:40;;;;;;;28.65;16.87;;;;;;;0.85;96.79;97952.30;1751289;81;25916;-69
2021/11/29 08:32:07;;;;;;;29.85;18.23;;;;;;;0.86;96.81;97961.86;1751315;81;25545;-69
2021/11/29 08:34:38;;;;;;;29.07;16.95;;;;;;;0.86;96.80;97963.20;1749221;80;27312;-69
2021/11/29 08:37:03;;;;;;;31.57;17.67;;;;;;;0.85;96.72;97962.41;1748987;80;25563;-69
2021/11/29 08:39:30;;;;;;;27.35;17.17;;;;;;;0.86;96.82;97960.53;1749407;81;25557;-69
2021/11/29 08:41:57;;;;;;;29.32;17.10;;;;;;;0.89;96.77;97965.26;1718460;82;25831;-69
2021/11/29 08:44:24;;;;;;;27.60;17.35;;;;;;;0.88;96.73;97957.80;1738530;82;25434;-69
2021/11/29 08:46:51;;;;;;;26.68;15.98;;;;;;;0.88;96.75;97955.13;1733389;81;27878;-69
2021/11/29 08:49:20;;;;;;;28.60;15.50;;;;;;;0.88;96.58;97961.78;1733227;82;25591;-70
2021/11/29 08:51:48;;;;;;;27.52;17.30;;;;;;;0.88;96.61;97965.00;1733388;82;25569;-70
2021/11/29 08:54:16;;;;;;;27.13;16.42;;;;;;;0.88;96.66;97977.76;1733356;82;26002;-70
2021/11/29 08:56:46;;;;;;;27.73;16.55;;;;;;;0.89;96.55;97971.36;1733382;82;25483;-70
2021/11/29 08:59:19;;;;;;;27.58;16.60;;;;;;;0.88;96.43;97965.00;1733378;82;27257;-70
2021/11/29 09:01:47;;;;;;;26.50;16.07;;;;;;;0.86;96.43;97958.64;1733306;82;25701;-70
2021/11/29 09:04:15;;;;;;;27.90;16.82;;;;;;;0.90;96.46;97958.83;1733387;82;25423;-70
2021/11/29 09:06:41;;;;;;;27.55;16.70;;;;;;;0.89;96.40;97958.60;1733342;82;25989;-70
2021/11/29 09:09:11;;;;;;;32.23;18.87;;;;;;;0.89;96.30;97958.60;1733313;82;25557;-70
2021/11/29 09:11:38;;;;;;;28.87;17.30;;;;;;;0.87;96.37;97961.56;1710405;82;27388;-70
2021/11/29 09:14:05;;;;;;;31.48;18.25;;;;;;;0.89;96.41;97970.03;1733282;82;25577;-70
2021/11/29 09:16:33;;;;;;;32.40;18.55;;;;;;;0.89;96.35;97967.37;1733366;82;25409;-70
2021/11/29 09:19:00;;;;;;;33.92;18.67;;;;;;;0.88;96.34;97972.98;1733299;82;26498;-70
2021/11/29 09:21:27;;;;;;;32.40;17.70;;;;;;;0.90;96.27;97982.78;1733427;82;25614;-70
2021/11/29 09:23:54;;;;;;;32.17;18.57;;;;;;;0.89;96.21;97979.90;1733322;82;27368;-69
2021/11/29 09:26:22;;;;;;;32.93;17.75;;;;;;;0.87;96.14;97974.06;1733285;82;25637;-69
2021/11/29 09:28:49;;;;;;;32.20;18.10;;;;;;;0.88;96.32;97971.11;1733334;82;25398;-69
2021/11/29 09:31:16;;;;;;;32.75;18.40;;;;;;;0.89;96.29;97972.69;1733326;82;25948;-69
2021/11/29 09:33:44;;;;;;;28.23;17.32;;;;;;;0.90;96.35;97976.94;1733373;82;25485;-69
2021/11/29 09:36:11;;;;;;;67.60;35.78;;;;;;;0.90;96.23;97975.61;1733357;82;27467;-69
2021/11/29 09:38:39;;;;;;;33.80;19.00;;;;;;;0.91;96.34;97969.73;1733283;82;25619;-69
2021/11/29 09:41:07;;;;;;;27.85;16.02;;;;;;;0.92;96.37;97967.32;1733894;82;25795;-69
2021/11/29 10:28:56;;;;;;;30.25;16.20;;;;;;;0.78;96.52;97969.23;1905549;74;35006;-68
2021/11/29 10:31:33;;;;;;;37.75;17.67;;;;;;;0.70;96.29;97968.09;1860016;76;25405;-68
2021/11/29 10:34:10;;;;;;;32.05;16.97;;;;;;;0.68;96.37;97964.39;1859918;77;27437;-69
2021/11/29 10:36:45;;;;;;;30.75;16.97;;;;;;;0.71;96.38;97970.97;1859875;77;25626;-69
2021/11/29 10:39:18;;;;;;;36.33;17.70;;;;;;;0.71;96.36;97974.96;1859947;77;25358;-69
2021/11/29 10:41:49;;;;;;;29.60;15.75;;;;;;;0.71;96.44;97977.07;1859881;76;25574;-68
2021/11/29 10:44:21;;;;;;;32.00;16.62;;;;;;;0.73;96.37;97978.11;1857917;76;25578;-68
2021/11/29 10:46:52;;;;;;;27.95;15.83;;;;;;;0.73;96.28;97974.11;1859812;76;28265;-68
2021/11/29 10:49:23;;;;;;;30.43;16.93;;;;;;;0.75;96.16;97978.61;1858561;76;25746;-68
2021/11/29 10:51:52;;;;;;;28.67;15.05;;;;;;;0.76;96.09;97980.72;1859934;76;25587;-69
2021/11/29 10:54:45;;;;;;;29.00;16.10;;;;;;;0.78;96.08;97978.55;1860017;76;25484;-69
2021/11/29 10:57:14;;;;;;;30.30;16.48;;;;;;;0.80;96.07;97975.03;1843886;77;25734;-68
2021/11/29 10:59:45;;;;;;;32.28;16.45;;;;;;;0.83;96.18;97969.11;1772346;81;27463;-69
2021/11/29 11:02:17;;;;;;;33.90;17.17;;;;;;;0.86;95.90;97967.19;1771882;81;25556;-69
2021/11/29 11:04:47;;;;;;;28.15;15.72;;;;;;;0.87;95.78;97965.55;1787363;80;25491;-69
2021/11/29 11:07:25;;;;;;;29.00;14.93;;;;;;;0.86;95.64;97965.30;1772167;81;25709;-69
2021/11/29 11:09:58;;;;;;;32.93;15.72;;;;;;;0.87;95.53;97964.75;1787263;80;25664;-68
2021/11/29 11:12:29;;;;;;;28.47;15.20;;;;;;;0.87;95.42;97952.77;1772141;81;27640;-68
2021/11/29 11:15:02;;;;;;;33.50;16.30;;;;;;;0.86;95.38;97962.64;1761334;80;25664;-68
2021/11/29 11:17:31;;;;;;;31.27;16.27;;;;;;;0.86;95.46;97957.87;1787338;80;25435;-68
2021/11/29 11:20:03;;;;;;;29.98;16.02;;;;;;;0.89;95.50;97962.04;1772137;81;25679;-68
2021/11/29 11:22:34;;;;;;;32.35;16.82;;;;;;;0.90;95.55;97959.63;1782912;80;25560;-68
2021/11/29 11:25:15;;;;;;;30.12;17.05;;;;;;;0.93;95.41;97952.91;1756927;81;27668;-68
2021/11/29 11:27:59;;;;;;;31.37;15.70;;;;;;;0.94;95.34;97950.50;1776939;80;25501;-69
2021/11/29 11:30:30;;;;;;;31.97;16.27;;;;;;;0.97;95.34;97959.73;1756941;81;25561;-68
2021/11/29 11:33:02;;;;;;;31.07;16.85;;;;;;;0.98;95.28;97952.01;1776997;80;25549;-69
2021/11/29 11:35:34;;;;;;;30.75;17.05;;;;;;;1.01;95.40;97952.19;1777164;80;25157;-69
2021/11/29 11:38:13;;;;;;;29.25;16.52;;;;;;;1.03;95.39;97951.33;1774909;80;27484;-69
2021/11/29 11:40:44;;;;;;;34.23;18.60;;;;;;;1.04;95.31;97949.45;1776381;80;25908;-68
2021/11/29 11:43:14;;;;;;;30.00;17.60;;;;;;;1.05;95.27;97957.69;1756376;81;25563;-69
2021/11/29 11:45:44;;;;;;;34.70;17.98;;;;;;;1.04;95.14;97949.45;1776426;80;25436;-67
2021/11/29 11:48:11;;;;;;;;;;;;;;;1.04;95.11;97954.77;1779143;80;25319;-68
2021/11/29 11:50:46;;;;;;;31.68;18.30;;;;;;;1.06;95.26;97956.06;1776540;80;27611;-68
2021/11/29 11:53:13;;;;;;;36.23;18.90;;;;;;;1.07;95.31;97958.17;1776374;80;25621;-68
2021/11/29 11:55:43;;;;;;;28.55;16.42;;;;;;;1.08;95.42;97955.20;1757182;81;25584;-68
2021/11/29 11:58:14;;;;;;;32.65;17.07;;;;;;;1.10;95.41;97943.70;1776208;80;25888;-68
2021/11/29 12:00:51;;;;;;;30.60;16.52;;;;;;;1.12;95.33;97950.05;1758592;81;25547;-68
2021/11/29 12:03:34;;;;;;;32.38;18.02;;;;;;;1.14;95.45;97947.87;1776212;80;27462;-69
2021/11/29 12:06:08;;;;;;;28.62;15.78;;;;;;;1.15;95.36;97961.98;1759235;81;25602;-69
2021/11/29 12:09:02;;;;;;;27.70;16.77;;;;;;;1.15;95.03;97963.32;1776188;80;25542;-68
2021/11/29 12:11:38;;;;;;;28.25;16.07;;;;;;;1.15;94.98;97962.77;1759316;81;25387;-69
2021/11/29 12:14:36;;;;;;;29.15;16.48;;;;;;;1.17;95.14;97961.91;1775194;80;25406;-69
2021/11/29 12:20:10;;;;;;;28.98;15.40;;;;;;;1.20;95.08;97957.87;1663258;86;25657;-69
2021/11/29 12:22:37;;;;;;;28.62;17.25;;;;;;;1.21;94.98;97958.09;1659515;86;25558;-69
2021/11/29 12:25:17;;;;;;;28.10;16.60;;;;;;;1.22;95.02;97965.00;1652723;86;27314;-69